Time;durP1;ratioP1;P1;durP2;ratioP2;P2;SDS_P1;SDS_P2;PMS_P1;PMS_P2;Temp;Humidity;BMP_temperature;BMP_pressure;BME280_temperature;BME280_humidity;BME280_pressure;Samples;Min_cycle;Max_cycle;Signal;HPM_P1;HPM_P2
2023/03/29 00:00:11;;;;;;;7.65;4.05;;;3.30;99.90;;;;;;5017973;28;20251;-80
2023/03/29 00:02:38;;;;;;;7.38;4.68;;;3.90;1.00;;;;;;5017482;28;20243;-81
2023/03/29 00:05:05;;;;;;;6.90;4.30;;;4.80;1.00;;;;;;5018884;28;20200;-79
2023/03/29 00:07:33;;;;;;;7.22;4.63;;;3.40;99.90;;;;;;5018432;28;20699;-78
2023/03/29 00:10:01;;;;;;;6.65;4.78;;;3.20;1.00;;;;;;5018619;28;20201;-80
2023/03/29 00:12:29;;;;;;;6.03;4.00;;;3.30;99.90;;;;;;5019104;28;20208;-80
2023/03/29 00:14:57;;;;;;;6.13;4.35;;;3.30;99.90;;;;;;5019044;28;20209;-81
2023/03/29 00:17:23;;;;;;;6.63;4.40;;;3.20;99.90;;;;;;5019505;28;20208;-81
2023/03/29 00:19:50;;;;;;;6.90;3.55;;;3.20;99.90;;;;;;5023526;28;20232;-80
2023/03/29 00:22:17;;;;;;;9.35;4.68;;;3.20;99.90;;;;;;5036450;28;20217;-81
2023/03/29 00:24:46;;;;;;;4.82;3.78;;;3.20;99.90;;;;;;5037612;28;20281;-81
2023/03/29 00:27:13;;;;;;;6.00;3.90;;;2.90;1.00;;;;;;5036044;28;20371;-81
2023/03/29 00:29:41;;;;;;;6.75;3.53;;;3.20;99.90;;;;;;5030485;28;20232;-82
2023/03/29 00:32:08;;;;;;;9.60;3.92;;;3.20;99.90;;;;;;5027025;28;20225;-81
2023/03/29 00:34:35;;;;;;;6.95;4.00;;;3.10;99.90;;;;;;5029989;28;20258;-80
2023/03/29 00:37:03;;;;;;;8.13;4.35;;;3.10;99.90;;;;;;5030394;28;20216;-79
2023/03/29 00:39:30;;;;;;;5.80;4.53;;;3.10;99.90;;;;;;5032143;28;20205;-80
2023/03/29 00:41:57;;;;;;;4.55;3.92;;;3.10;99.90;;;;;;5032805;28;20238;-80
2023/03/29 00:45:07;;;;;;;4.88;3.80;;;3.10;1.00;;;;;;5032301;28;20296;-80
2023/03/29 00:47:40;;;;;;;5.53;3.58;;;3.10;99.90;;;;;;5022338;28;20253;-80
2023/03/29 00:50:13;;;;;;;9.40;4.13;;;3.00;99.90;;;;;;5029698;28;20194;-81
2023/03/29 00:52:42;;;;;;;5.10;4.18;;;2.90;1.00;;;;;;5024031;28;20186;-80
2023/03/29 00:55:14;;;;;;;5.80;3.33;;;2.90;1.00;;;;;;5023484;28;20212;-79
2023/03/29 00:57:45;;;;;;;5.97;3.88;;;2.90;1.00;;;;;;5024151;28;20193;-81
2023/03/29 01:00:16;;;;;;;15.93;3.90;;;3.00;1.00;;;;;;5020911;28;20198;-82
2023/03/29 01:02:52;;;;;;;6.97;3.80;;;2.90;1.00;;;;;;5021134;28;20641;-81
2023/03/29 01:05:25;;;;;;;5.72;4.00;;;3.00;1.00;;;;;;5020466;28;20240;-82
2023/03/29 01:07:58;;;;;;;9.00;4.05;;;3.00;1.00;;;;;;5020438;28;20259;-81
2023/03/29 01:10:31;;;;;;;5.40;4.05;;;3.00;1.00;;;;;;5020079;28;20197;-82
2023/03/29 01:13:04;;;;;;;12.07;4.85;;;2.90;1.00;;;;;;5018410;28;20227;-81
2023/03/29 01:15:33;;;;;;;8.15;3.47;;;3.00;1.00;;;;;;5019108;28;20196;-80
2023/03/29 01:18:01;;;;;;;5.35;3.05;;;3.20;1.00;;;;;;5022697;28;20200;-78
2023/03/29 01:20:42;;;;;;;3.60;3.30;;;2.90;1.00;;;;;;5025777;28;20220;-78
2023/03/29 01:23:26;;;;;;;4.43;2.97;;;3.20;1.00;;;;;;5055094;22;20245;-83
2023/03/29 01:26:01;;;;;;;11.30;3.60;;;2.80;1.00;;;;;;5058406;28;20195;-83
2023/03/29 01:28:33;;;;;;;7.50;3.80;;;3.00;99.90;;;;;;5064032;28;20626;-82
2023/03/29 01:31:07;;;;;;;7.55;3.70;;;3.00;99.90;;;;;;5067842;28;20207;-82
2023/03/29 01:33:38;;;;;;;5.03;3.65;;;3.30;1.00;;;;;;5063546;28;20270;-82
2023/03/29 01:36:12;;;;;;;5.90;3.50;;;3.10;1.00;;;;;;5058405;28;20188;-81
2023/03/29 01:38:43;;;;;;;4.93;3.15;;;3.10;99.90;;;;;;5060592;28;20191;-81
2023/03/29 01:41:10;;;;;;;9.00;3.50;;;3.10;99.90;;;;;;5065664;28;20201;-82
2023/03/29 01:43:44;;;;;;;7.53;3.42;;;3.10;99.90;;;;;;5062231;28;20789;-82
2023/03/29 01:46:19;;;;;;;7.10;3.97;;;3.10;99.90;;;;;;5061325;28;20727;-82
2023/03/29 01:48:50;;;;;;;11.38;4.80;;;3.10;99.90;;;;;;5061548;28;20187;-81
2023/03/29 01:51:23;;;;;;;5.45;4.00;;;3.30;1.00;;;;;;5065645;28;20275;-82
2023/03/29 01:53:55;;;;;;;8.40;3.60;;;3.10;99.90;;;;;;5062245;28;20649;-80
2023/03/29 01:56:26;;;;;;;4.63;3.72;;;3.20;1.00;;;;;;5061688;28;20590;-80
2023/03/29 01:59:00;;;;;;;5.18;4.15;;;3.20;99.90;;;;;;5061194;28;20267;-80
2023/03/29 02:01:30;;;;;;;4.78;3.30;;;3.20;99.90;;;;;;5061736;28;20185;-80
2023/03/29 02:04:01;;;;;;;7.45;3.88;;;3.10;99.90;;;;;;5061082;28;20234;-81
2023/03/29 02:06:31;;;;;;;6.72;4.18;;;3.20;99.90;;;;;;5061083;28;20294;-81
2023/03/29 02:08:59;;;;;;;4.97;4.00;;;3.20;99.90;;;;;;5061366;28;20282;-81
2023/03/29 02:11:28;;;;;;;7.97;5.13;;;3.20;99.90;;;;;;5061155;28;20216;-81
2023/03/29 02:13:56;;;;;;;5.43;4.07;;;3.20;99.90;;;;;;5064652;28;20223;-81
2023/03/29 02:16:23;;;;;;;7.80;3.80;;;3.20;99.90;;;;;;5079594;28;20196;-81
2023/03/29 02:18:53;;;;;;;8.40;5.00;;;3.00;1.00;;;;;;5074223;28;20651;-81
2023/03/29 02:21:26;;;;;;;5.45;4.78;;;3.20;99.90;;;;;;5061723;28;20204;-82
2023/03/29 02:23:55;;;;;;;5.95;4.35;;;3.20;99.90;;;;;;5063585;28;20302;-82
2023/03/29 02:26:22;;;;;;;9.50;5.22;;;3.20;99.90;;;;;;5078112;28;20232;-82
2023/03/29 02:28:50;;;;;;;5.82;5.00;;;3.20;99.90;;;;;;5078364;28;20203;-82
2023/03/29 02:31:23;;;;;;;9.27;4.60;;;3.20;99.90;;;;;;5064379;28;20706;-82
2023/03/29 02:33:54;;;;;;;9.63;5.68;;;3.20;99.90;;;;;;5062306;28;20234;-82
2023/03/29 02:36:26;;;;;;;8.23;5.78;;;3.10;99.90;;;;;;5061997;28;20546;-83
2023/03/29 02:38:54;;;;;;;6.15;5.53;;;3.00;99.90;;;;;;5060924;28;20187;-83
2023/03/29 02:41:24;;;;;;;9.55;6.45;;;3.00;99.90;;;;;;5061385;28;20204;-83
2023/03/29 02:43:51;;;;;;;10.02;6.95;;;3.20;1.00;;;;;;5061554;28;20229;-83
2023/03/29 02:46:21;;;;;;;6.95;5.95;;;3.00;99.90;;;;;;5061836;28;20204;-83
2023/03/29 02:48:51;;;;;;;7.25;6.45;;;2.90;1.00;;;;;;5062893;28;20215;-83
2023/03/29 02:51:21;;;;;;;13.30;6.85;;;2.90;99.90;;;;;;5069381;28;20227;-83
2023/03/29 02:53:52;;;;;;;8.00;7.20;;;2.90;1.00;;;;;;5073924;28;20249;-82
2023/03/29 02:56:20;;;;;;;9.02;6.57;;;2.90;1.00;;;;;;5074297;28;20195;-82
2023/03/29 02:58:47;;;;;;;7.28;6.60;;;2.90;1.00;;;;;;5073217;28;20287;-82
2023/03/29 03:01:15;;;;;;;9.27;6.25;;;3.00;1.00;;;;;;5074632;28;20294;-83
2023/03/29 03:03:43;;;;;;;13.85;6.70;;;2.80;99.90;;;;;;5074097;28;20290;-83
2023/03/29 03:06:11;;;;;;;7.15;6.45;;;2.80;1.00;;;;;;5073366;28;20234;-83
2023/03/29 03:08:37;;;;;;;8.40;6.68;;;2.80;99.90;;;;;;5071119;28;20222;-83
2023/03/29 03:11:04;;;;;;;13.82;6.60;;;2.80;1.00;;;;;;5068176;28;20200;-83
2023/03/29 03:13:31;;;;;;;8.80;6.00;;;2.80;1.00;;;;;;5068804;28;20222;-83
2023/03/29 03:15:59;;;;;;;8.18;6.90;;;2.80;1.00;;;;;;5069047;28;20203;-83
2023/03/29 03:18:26;;;;;;;9.07;6.50;;;2.80;1.00;;;;;;5073037;28;20230;-83
2023/03/29 03:21:00;;;;;;;13.15;7.10;;;2.70;1.00;;;;;;5073187;28;20275;-83
2023/03/29 03:23:28;;;;;;;8.60;7.00;;;2.60;1.00;;;;;;5075607;28;20650;-83
2023/03/29 03:25:55;;;;;;;8.73;6.78;;;2.90;1.00;;;;;;5072910;28;20205;-83
2023/03/29 03:28:22;;;;;;;9.90;7.72;;;2.60;1.00;;;;;;5064926;28;20207;-83
2023/03/29 03:30:49;;;;;;;12.15;8.02;;;2.80;1.00;;;;;;5066594;28;20211;-83
2023/03/29 03:33:17;;;;;;;10.48;7.05;;;2.60;1.00;;;;;;5065248;28;20310;-83
2023/03/29 03:35:46;;;;;;;9.70;6.85;;;2.60;1.00;;;;;;5064854;28;20268;-84
2023/03/29 03:38:15;;;;;;;9.80;5.47;;;2.50;1.00;;;;;;5064939;28;20262;-83
2023/03/29 03:40:42;;;;;;;6.25;4.72;;;2.50;1.00;;;;;;5070134;28;20222;-84
2023/03/29 03:43:09;;;;;;;10.65;6.35;;;2.70;88.50;;;;;;5066854;28;20199;-83
2023/03/29 03:45:36;;;;;;;11.30;7.20;;;2.90;1.00;;;;;;5064784;28;20218;-83
2023/03/29 03:48:03;;;;;;;18.33;8.20;;;2.60;99.90;;;;;;5063902;28;20207;-83
2023/03/29 03:50:30;;;;;;;14.63;7.35;;;2.40;99.90;;;;;;5060698;28;20215;-84
2023/03/29 03:53:00;;;;;;;8.60;6.82;;;2.60;99.90;;;;;;5060604;28;20261;-83
2023/03/29 03:55:31;;;;;;;9.15;6.95;;;2.50;2.80;;;;;;5062238;28;20208;-83
2023/03/29 03:57:58;;;;;;;10.23;6.60;;;2.40;1.00;;;;;;5062353;28;20199;-84
2023/03/29 04:00:26;;;;;;;9.38;6.28;;;2.40;14.50;;;;;;5062526;28;20230;-84
2023/03/29 04:02:53;;;;;;;6.10;5.50;;;2.50;1.00;;;;;;5062487;28;20200;-84
2023/03/29 04:05:20;;;;;;;6.40;4.70;;;2.50;1.00;;;;;;5063141;28;20208;-84
2023/03/29 04:07:47;;;;;;;7.95;5.15;;;2.50;16.10;;;;;;5060488;28;20203;-83
2023/03/29 04:10:14;;;;;;;8.02;4.85;;;2.60;1.00;;;;;;5062098;28;20439;-83
2023/03/29 04:12:42;;;;;;;6.95;5.43;;;2.60;1.00;;;;;;5064625;28;20625;-83
2023/03/29 04:15:10;;;;;;;10.25;4.10;;;2.50;1.00;;;;;;5061661;28;20447;-82
2023/03/29 04:17:37;;;;;;;12.20;5.25;;;2.50;1.00;;;;;;5061664;28;20215;-83
2023/03/29 04:20:12;;;;;;;6.30;4.40;;;2.50;1.00;;;;;;5061146;28;20559;-83
2023/03/29 04:22:40;;;;;;;6.75;4.57;;;2.50;1.00;;;;;;5060324;28;20563;-83
2023/03/29 04:25:09;;;;;;;5.88;4.45;;;2.60;1.00;;;;;;5059924;28;20241;-83
2023/03/29 04:27:36;;;;;;;8.35;4.72;;;2.40;1.00;;;;;;5061979;28;20207;-83
2023/03/29 04:30:06;;;;;;;5.43;3.92;;;2.20;1.00;;;;;;5066341;28;20211;-82
2023/03/29 04:32:35;;;;;;;7.15;5.20;;;2.30;1.00;;;;;;5063249;28;20223;-83
2023/03/29 04:35:03;;;;;;;8.48;4.25;;;2.40;1.00;;;;;;5063557;28;20243;-84
2023/03/29 04:37:30;;;;;;;6.28;4.85;;;2.20;1.00;;;;;;5062327;28;20203;-83
2023/03/29 04:39:59;;;;;;;13.18;5.60;;;2.40;1.00;;;;;;5062654;28;20696;-83
2023/03/29 04:42:26;;;;;;;8.00;4.35;;;2.30;1.00;;;;;;5062015;28;20634;-83
2023/03/29 04:44:53;;;;;;;7.53;5.20;;;2.40;1.00;;;;;;5060433;28;20651;-83
2023/03/29 04:47:21;;;;;;;6.82;4.32;;;2.20;1.00;;;;;;5061141;28;20203;-84
2023/03/29 04:49:48;;;;;;;12.35;7.07;;;2.30;1.00;;;;;;5061652;28;20204;-84
2023/03/29 04:52:15;;;;;;;9.82;4.20;;;2.30;1.00;;;;;;5066870;28;20209;-82
2023/03/29 04:54:42;;;;;;;10.55;4.35;;;2.30;1.00;;;;;;5056978;28;20310;-82
2023/03/29 04:57:09;;;;;;;6.90;5.13;;;2.40;1.00;;;;;;5056543;28;20199;-83
2023/03/29 04:59:36;;;;;;;9.18;4.93;;;2.30;1.00;;;;;;5059449;28;20785;-83
2023/03/29 05:02:03;;;;;;;8.73;5.10;;;2.30;1.00;;;;;;5072634;28;20180;-83
2023/03/29 05:04:32;;;;;;;12.18;5.57;;;2.20;1.00;;;;;;5072843;28;20228;-83
2023/03/29 05:07:00;;;;;;;85.43;8.68;;;2.30;1.00;;;;;;5075623;28;20188;-82
2023/03/29 05:09:27;;;;;;;12.70;5.00;;;2.30;1.00;;;;;;5076604;28;20291;-82
2023/03/29 05:11:54;;;;;;;5.90;5.32;;;2.30;1.00;;;;;;5075048;28;20353;-83
2023/03/29 05:14:22;;;;;;;5.80;4.13;;;2.30;1.00;;;;;;5065395;28;20227;-84
2023/03/29 05:16:49;;;;;;;8.57;5.05;;;2.30;1.00;;;;;;5065281;28;20237;-83
2023/03/29 05:19:16;;;;;;;15.45;5.93;;;2.40;99.90;;;;;;5064331;28;20208;-83
2023/03/29 05:21:45;;;;;;;6.20;4.63;;;2.30;1.00;;;;;;5063933;28;20198;-83
2023/03/29 05:24:11;;;;;;;9.23;4.72;;;2.40;99.90;;;;;;5063799;28;20323;-83
2023/03/29 05:26:38;;;;;;;9.82;4.25;;;2.40;99.90;;;;;;5066350;28;20283;-83
2023/03/29 05:29:07;;;;;;;7.68;4.70;;;2.40;99.90;;;;;;5077560;28;20210;-83
2023/03/29 05:31:36;;;;;;;10.73;5.38;;;2.50;99.90;;;;;;5081262;28;20192;-83
2023/03/29 05:34:04;;;;;;;5.78;5.00;;;2.50;99.90;;;;;;5066551;28;20219;-84
2023/03/29 05:36:31;;;;;;;5.63;4.38;;;2.50;99.90;;;;;;5062328;28;20203;-84
2023/03/29 05:39:00;;;;;;;10.35;5.20;;;2.60;99.90;;;;;;5062295;28;20721;-83
2023/03/29 05:41:27;;;;;;;11.43;4.75;;;2.80;99.90;;;;;;5061957;28;20555;-83
2023/03/29 05:43:54;;;;;;;8.40;4.43;;;2.70;99.90;;;;;;5063452;28;20216;-83
2023/03/29 05:46:21;;;;;;;11.02;5.22;;;2.70;99.90;;;;;;5065291;28;20209;-83
2023/03/29 05:48:48;;;;;;;8.88;5.20;;;2.70;99.90;;;;;;5063496;28;20227;-83
2023/03/29 05:51:15;;;;;;;16.25;5.78;;;2.80;99.90;;;;;;5063648;28;20679;-83
2023/03/29 05:53:44;;;;;;;7.43;5.28;;;2.70;99.90;;;;;;5066403;28;20224;-83
2023/03/29 05:56:14;;;;;;;8.00;4.97;;;2.80;23.60;;;;;;5078984;28;20256;-83
2023/03/29 05:58:41;;;;;;;9.30;4.80;;;2.80;9.20;;;;;;5073729;28;20192;-83
2023/03/29 06:01:11;;;;;;;9.32;5.80;;;2.80;6.10;;;;;;5066246;28;20227;-82
2023/03/29 06:03:38;;;;;;;8.10;5.75;;;2.90;1.00;;;;;;5064688;28;20567;-83
2023/03/29 06:06:05;;;;;;;8.02;4.70;;;3.00;1.00;;;;;;5068340;28;20232;-83
2023/03/29 06:08:34;;;;;;;12.35;6.35;;;3.00;1.00;;;;;;5065865;28;20204;-83
2023/03/29 06:11:02;;;;;;;6.40;4.93;;;3.10;1.00;;;;;;5064744;28;20211;-83
2023/03/29 06:13:32;;;;;;;8.32;4.80;;;3.10;1.00;;;;;;5064201;28;20228;-83
2023/03/29 06:16:03;;;;;;;10.68;5.63;;;3.10;1.00;;;;;;5064942;28;20227;-83
2023/03/29 06:18:30;;;;;;;7.38;4.18;;;3.20;1.00;;;;;;5065037;28;20188;-83
2023/03/29 06:20:57;;;;;;;9.15;5.15;;;3.20;1.00;;;;;;5064007;28;20243;-83
2023/03/29 06:23:24;;;;;;;7.55;5.03;;;3.10;1.00;;;;;;5065289;28;20238;-83
2023/03/29 06:25:51;;;;;;;7.25;5.13;;;3.20;1.00;;;;;;5072815;28;20213;-83
2023/03/29 06:28:19;;;;;;;7.88;4.50;;;3.20;1.00;;;;;;5075926;28;20205;-83
2023/03/29 06:30:48;;;;;;;14.07;5.90;;;3.30;1.00;;;;;;5066930;28;20205;-83
2023/03/29 06:33:16;;;;;;;7.93;5.20;;;3.30;1.00;;;;;;5066129;28;20232;-83
2023/03/29 06:35:45;;;;;;;20.58;5.45;;;3.30;99.90;;;;;;5065375;28;20204;-83
2023/03/29 06:38:13;;;;;;;8.05;5.00;;;3.30;1.00;;;;;;5064213;28;20207;-82
2023/03/29 06:40:41;;;;;;;10.70;4.60;;;3.40;1.00;;;;;;5068617;28;20258;-82
2023/03/29 06:43:09;;;;;;;4.82;3.97;;;3.50;99.90;;;;;;5068797;28;20231;-82
2023/03/29 06:45:37;;;;;;;5.65;4.85;;;3.40;1.00;;;;;;5067654;28;20220;-82
2023/03/29 06:48:07;;;;;;;7.95;5.57;;;3.50;1.00;;;;;;5065716;28;20224;-82
2023/03/29 06:50:35;;;;;;;7.10;4.15;;;3.50;1.00;;;;;;5064645;28;20213;-82
2023/03/29 06:53:02;;;;;;;11.20;5.18;;;3.80;99.90;;;;;;5067098;28;20288;-83
2023/03/29 06:55:32;;;;;;;10.45;6.57;;;3.70;1.00;;;;;;5067164;28;20207;-83
2023/03/29 06:57:59;;;;;;;11.57;5.20;;;3.70;1.00;;;;;;5071778;28;20205;-83
2023/03/29 07:00:29;;;;;;;9.60;5.07;;;3.70;1.00;;;;;;5076189;28;20232;-82
2023/03/29 07:02:59;;;;;;;9.43;5.82;;;3.60;1.00;;;;;;5076662;28;20275;-82
2023/03/29 07:05:28;;;;;;;11.65;5.30;;;3.70;1.00;;;;;;5065873;28;20219;-83
2023/03/29 07:07:58;;;;;;;10.75;6.50;;;3.90;1.00;;;;;;5069301;28;20200;-83
2023/03/29 07:10:30;;;;;;;5.88;5.30;;;4.00;1.00;;;;;;5064786;28;20280;-83
2023/03/29 07:12:58;;;;;;;10.10;5.20;;;3.80;29.80;;;;;;5064133;28;20261;-83
2023/03/29 07:15:26;;;;;;;9.30;4.78;;;4.00;1.00;;;;;;5065057;28;20213;-84
2023/03/29 07:17:53;;;;;;;9.35;4.65;;;4.10;1.00;;;;;;5067117;28;20629;-84
2023/03/29 07:20:21;;;;;;;12.25;6.57;;;4.30;1.00;;;;;;5064991;28;20223;-84
2023/03/29 07:22:50;;;;;;;22.05;7.15;;;4.50;1.00;;;;;;5064347;28;20201;-84
2023/03/29 07:25:18;;;;;;;11.00;4.93;;;4.50;1.00;;;;;;5063816;22;20295;-80
2023/03/29 07:27:46;;;;;;;10.85;5.45;;;4.50;1.00;;;;;;5045276;28;20225;-81
2023/03/29 07:30:15;;;;;;;6.97;5.25;;;4.60;1.00;;;;;;5039689;28;20612;-81
2023/03/29 07:32:44;;;;;;;9.13;4.50;;;4.70;1.00;;;;;;5038181;28;20722;-79
2023/03/29 07:35:12;;;;;;;8.65;5.25;;;4.80;1.00;;;;;;5037722;28;20278;-81
2023/03/29 07:37:41;;;;;;;5.80;4.90;;;4.90;1.00;;;;;;5041591;28;20271;-81
2023/03/29 07:40:14;;;;;;;8.93;5.45;;;4.90;1.00;;;;;;5038674;28;20232;-81
2023/03/29 07:42:42;;;;;;;7.88;5.47;;;4.90;1.00;;;;;;5037914;28;20220;-82
2023/03/29 07:45:12;;;;;;;8.10;4.75;;;5.00;1.00;;;;;;5037876;28;20232;-81
2023/03/29 07:47:39;;;;;;;11.02;4.53;;;5.00;1.00;;;;;;5041227;28;20297;-81
2023/03/29 07:50:07;;;;;;;9.57;5.03;;;5.10;1.00;;;;;;5042434;28;20212;-82
2023/03/29 07:52:35;;;;;;;11.07;6.00;;;5.20;1.00;;;;;;5042945;28;20269;-80
2023/03/29 07:55:02;;;;;;;36.65;6.82;;;5.30;1.00;;;;;;5046182;28;20257;-80
2023/03/29 07:57:30;;;;;;;10.68;4.78;;;5.30;1.00;;;;;;5046873;28;20225;-81
2023/03/29 07:59:57;;;;;;;7.18;4.05;;;5.40;1.00;;;;;;5048996;28;20231;-80
2023/03/29 08:02:24;;;;;;;10.75;4.90;;;5.40;1.00;;;;;;5049980;28;20210;-81
2023/03/29 08:04:52;;;;;;;9.55;5.63;;;6.00;1.00;;;;;;5043588;28;20235;-80
2023/03/29 08:07:20;;;;;;;11.80;4.90;;;5.80;1.00;;;;;;5045097;28;20208;-82
2023/03/29 08:09:47;;;;;;;6.93;5.10;;;5.90;1.00;;;;;;5045901;28;20214;-81
2023/03/29 08:12:14;;;;;;;5.82;3.92;;;5.90;1.00;;;;;;5041615;28;20205;-80
2023/03/29 08:14:42;;;;;;;8.20;3.83;;;5.90;1.00;;;;;;5040492;28;20241;-82
2023/03/29 08:17:09;;;;;;;5.82;4.20;;;6.00;1.00;;;;;;5039695;28;20293;-81
2023/03/29 08:19:36;;;;;;;6.93;4.30;;;6.10;1.00;;;;;;5040498;28;20210;-81
2023/03/29 08:22:03;;;;;;;5.55;3.85;;;6.20;1.00;;;;;;5040769;28;20202;-80
2023/03/29 08:24:30;;;;;;;8.90;4.38;;;6.30;1.00;;;;;;5039947;28;20239;-81
2023/03/29 08:26:57;;;;;;;15.38;4.97;;;6.20;1.00;;;;;;5046344;28;20205;-83
2023/03/29 08:29:24;;;;;;;12.95;4.97;;;6.30;1.00;;;;;;5049410;28;20217;-80
2023/03/29 08:31:55;;;;;;;9.20;4.97;;;6.40;1.00;;;;;;5046795;28;20287;-82
2023/03/29 08:34:22;;;;;;;8.18;3.90;;;6.40;1.00;;;;;;5043704;28;20229;-82
2023/03/29 08:36:49;;;;;;;5.10;4.00;;;6.40;1.00;;;;;;5040556;28;20225;-82
2023/03/29 08:39:16;;;;;;;5.82;4.40;;;6.40;1.00;;;;;;5043511;28;20210;-82
2023/03/29 08:41:58;;;;;;;6.82;3.85;;;6.40;1.00;;;;;;5045150;28;20207;-80
2023/03/29 08:44:41;;;;;;;9.02;5.05;;;6.30;1.00;;;;;;5044572;28;20225;-79
2023/03/29 08:47:18;;;;;;;8.32;4.57;;;6.40;1.00;;;;;;5042463;28;20195;-83
2023/03/29 08:49:49;;;;;;;3.90;3.50;;;6.40;1.00;;;;;;5053347;28;20186;-82
2023/03/29 08:52:22;;;;;;;5.18;4.05;;;6.70;1.00;;;;;;5051011;28;20253;-81
2023/03/29 08:54:53;;;;;;;9.05;4.60;;;6.90;1.00;;;;;;5052143;28;20264;-79
2023/03/29 08:57:25;;;;;;;4.53;4.00;;;6.90;1.00;;;;;;5048634;28;20190;-81
2023/03/29 08:59:55;;;;;;;6.35;3.80;;;7.10;1.00;;;;;;5052469;28;20190;-80
2023/03/29 09:02:26;;;;;;;10.93;4.07;;;7.20;1.00;;;;;;5049908;28;20291;-80
2023/03/29 09:04:58;;;;;;;5.72;5.15;;;7.40;1.00;;;;;;5046441;28;20234;-83
2023/03/29 09:07:25;;;;;;;4.88;3.20;;;7.80;1.00;;;;;;5044944;28;20189;-81
2023/03/29 09:09:53;;;;;;;6.32;4.07;;;7.50;1.00;;;;;;5045560;28;20260;-81
2023/03/29 09:12:34;;;;;;;7.85;3.55;;;7.60;1.00;;;;;;5046532;28;20684;-83
2023/03/29 09:15:10;;;;;;;7.45;4.85;;;7.60;1.00;;;;;;5046270;28;20262;-82
2023/03/29 09:17:58;;;;;;;7.68;3.95;;;7.80;1.00;;;;;;5045167;28;20218;-84
2023/03/29 09:20:32;;;;;;;6.03;4.57;;;7.90;1.00;;;;;;5045134;28;20649;-84
2023/03/29 09:23:20;;;;;;;8.30;4.50;;;8.20;1.00;;;;;;5046151;28;20200;-82
2023/03/29 09:25:56;;;;;;;5.57;4.13;;;8.30;1.00;;;;;;5042838;28;20395;-82
2023/03/29 09:28:33;;;;;;;7.70;4.37;;;8.20;1.00;;;;;;5041325;28;20412;-83
2023/03/29 09:31:05;;;;;;;4.87;4.07;;;8.30;1.00;;;;;;5042275;28;20448;-82
2023/03/29 09:33:41;;;;;;;6.57;4.47;;;8.30;1.00;;;;;;5054323;28;20491;-82
2023/03/29 09:36:14;;;;;;;4.57;4.17;;;8.30;1.00;;;;;;5059763;28;20412;-82
2023/03/29 09:38:46;;;;;;;9.37;6.03;;;8.40;1.00;;;;;;5057503;28;20449;-81
2023/03/29 09:41:21;;;;;;;4.80;4.30;;;8.40;1.00;;;;;;5044621;28;20936;-81
2023/03/29 09:43:50;;;;;;;8.40;4.83;;;8.50;1.00;;;;;;5043195;28;20483;-82
2023/03/29 09:46:23;;;;;;;6.33;5.10;;;8.70;1.00;;;;;;5044611;28;20431;-82
2023/03/29 09:48:52;;;;;;;4.53;3.67;;;8.70;1.00;;;;;;5049562;28;20412;-80
2023/03/29 09:51:24;;;;;;;4.10;3.70;;;8.70;1.00;;;;;;5058876;28;20465;-81
2023/03/29 09:53:51;;;;;;;18.87;4.90;;;8.80;1.00;;;;;;5059477;28;20462;-81
2023/03/29 09:56:18;;;;;;;4.90;4.10;;;9.00;1.00;;;;;;5056995;28;20453;-79
2023/03/29 09:58:46;;;;;;;7.07;4.17;;;9.30;1.00;;;;;;5057436;28;20425;-82
2023/03/29 10:01:16;;;;;;;3.70;3.40;;;9.20;1.00;;;;;;5058389;28;20509;-82
2023/03/29 10:03:48;;;;;;;6.33;3.67;;;9.20;1.00;;;;;;5059428;28;20438;-81
2023/03/29 10:06:18;;;;;;;12.13;5.27;;;9.30;1.00;;;;;;5053776;28;20488;-82
2023/03/29 10:08:49;;;;;;;6.40;3.90;;;9.40;1.00;;;;;;5049534;28;20457;-82
2023/03/29 10:11:22;;;;;;;4.63;3.87;;;9.50;1.00;;;;;;5049740;28;20480;-80
2023/03/29 10:13:53;;;;;;;22.70;5.80;;;9.30;1.00;;;;;;5049175;28;20491;-80
2023/03/29 10:16:22;;;;;;;5.90;4.70;;;9.40;1.00;;;;;;5044668;28;20447;-82
2023/03/29 10:18:50;;;;;;;10.83;4.30;;;9.40;1.00;;;;;;5041369;28;20429;-81
2023/03/29 10:21:20;;;;;;;4.60;4.20;;;9.60;1.00;;;;;;5041298;28;20427;-83
2023/03/29 10:23:48;;;;;;;30.33;9.03;;;9.50;1.00;;;;;;5041744;28;20504;-81
2023/03/29 10:26:24;;;;;;;5.70;4.10;;;9.80;1.00;;;;;;5041037;28;20412;-82
2023/03/29 10:28:55;;;;;;;3.73;3.43;;;9.90;1.00;;;;;;5040847;28;20408;-80
2023/03/29 10:31:24;;;;;;;5.07;4.03;;;9.90;1.00;;;;;;5041231;28;20940;-82
2023/03/29 10:33:53;;;;;;;4.97;4.57;;;9.30;1.00;;;;;;5041507;28;20486;-82
2023/03/29 10:36:23;;;;;;;4.77;4.00;;;10.10;1.00;;;;;;5041394;28;20504;-82
2023/03/29 10:38:51;;;;;;;7.00;4.40;;;9.60;1.00;;;;;;5040918;28;20968;-81
2023/03/29 10:41:20;;;;;;;14.77;5.13;;;9.70;1.00;;;;;;5040104;28;20431;-82
2023/03/29 10:43:50;;;;;;;17.17;5.70;;;9.50;1.00;;;;;;5041704;28;20465;-81
2023/03/29 10:46:22;;;;;;;9.83;4.37;;;9.50;1.00;;;;;;5042047;28;20449;-82
2023/03/29 10:48:51;;;;;;;18.70;6.03;;;9.40;1.00;;;;;;5046142;28;20456;-81
2023/03/29 10:51:19;;;;;;;6.97;4.70;;;9.30;1.00;;;;;;5054494;28;20462;-81
2023/03/29 10:53:47;;;;;;;4.50;4.00;;;9.50;1.00;;;;;;5051974;28;20858;-82
2023/03/29 10:56:33;;;;;;;8.40;3.60;;;9.60;1.00;;;;;;5050018;28;20488;-81
2023/03/29 10:59:23;;;;;;;5.97;4.60;;;9.80;1.00;;;;;;5044266;28;20437;-80
2023/03/29 11:01:59;;;;;;;7.13;4.47;;;10.00;1.00;;;;;;5050711;28;20404;-80
2023/03/29 11:04:37;;;;;;;10.70;4.70;;;10.10;1.00;;;;;;5048652;28;20466;-83
2023/03/29 11:07:21;;;;;;;6.87;5.70;;;10.10;1.00;;;;;;5042064;28;20896;-80
2023/03/29 11:09:59;;;;;;;5.93;4.37;;;9.90;1.00;;;;;;5043236;28;20410;-82
2023/03/29 11:12:34;;;;;;;5.07;4.53;;;10.10;1.00;;;;;;5043483;28;20479;-81
2023/03/29 11:15:13;;;;;;;7.00;5.13;;;10.30;1.00;;;;;;5047238;28;20493;-81
2023/03/29 11:17:55;;;;;;;4.40;4.00;;;10.50;1.00;;;;;;5049573;28;20440;-82
2023/03/29 11:20:30;;;;;;;6.70;5.87;;;10.20;1.00;;;;;;5047429;28;20469;-81
2023/03/29 11:23:09;;;;;;;7.47;6.07;;;10.00;1.00;;;;;;5043343;28;20407;-80
2023/03/29 11:25:52;;;;;;;4.43;4.00;;;10.10;1.00;;;;;;5042893;28;20471;-83
2023/03/29 11:28:30;;;;;;;6.23;4.07;;;10.40;1.00;;;;;;5049926;28;20416;-82
2023/03/29 11:31:04;;;;;;;4.33;3.93;;;10.40;1.00;;;;;;5049936;28;20476;-82
2023/03/29 11:33:42;;;;;;;5.37;4.80;;;10.40;1.00;;;;;;5043394;28;20491;-81
2023/03/29 11:36:15;;;;;;;7.27;4.43;;;10.40;1.00;;;;;;5043292;28;20408;-83
2023/03/29 11:38:51;;;;;;;6.20;5.10;;;10.80;1.00;;;;;;5040298;28;20470;-81
2023/03/29 11:41:23;;;;;;;10.10;5.83;;;10.80;1.00;;;;;;5040560;28;20528;-83
2023/03/29 11:43:53;;;;;;;8.07;4.83;;;10.80;1.00;;;;;;5040574;28;20479;-82
2023/03/29 11:46:26;;;;;;;6.77;5.90;;;10.70;1.00;;;;;;5040664;28;20419;-81
2023/03/29 11:49:00;;;;;;;6.20;4.63;;;10.80;1.00;;;;;;5042716;28;20463;-82
2023/03/29 11:51:32;;;;;;;6.83;4.93;;;10.60;1.00;;;;;;5048074;28;20441;-81
2023/03/29 11:54:04;;;;;;;4.80;4.50;;;10.70;1.00;;;;;;5042465;28;20498;-81
2023/03/29 11:56:40;;;;;;;6.57;4.47;;;11.00;1.00;;;;;;5039595;28;20477;-81
2023/03/29 11:59:14;;;;;;;4.03;3.73;;;10.80;99.90;;;;;;5039669;28;20902;-81
2023/03/29 12:01:46;;;;;;;4.73;4.33;;;10.80;99.90;;;;;;5039501;28;20434;-82
2023/03/29 12:04:21;;;;;;;6.97;5.40;;;10.70;99.90;;;;;;5039168;28;20509;-82
2023/03/29 12:06:54;;;;;;;8.50;5.53;;;10.90;99.90;;;;;;5039994;28;20511;-81
2023/03/29 12:09:31;;;;;;;8.57;5.50;;;10.70;99.90;;;;;;5040289;28;20465;-81
2023/03/29 12:12:06;;;;;;;8.13;5.23;;;10.70;99.90;;;;;;5040498;28;20779;-81
2023/03/29 12:14:47;;;;;;;12.77;5.00;;;10.80;99.90;;;;;;5037023;28;20492;-80
2023/03/29 12:17:23;;;;;;;15.83;4.83;;;10.90;99.90;;;;;;5037572;28;20438;-81
2023/03/29 12:20:11;;;;;;;8.90;5.40;;;11.20;1.00;;;;;;5038020;28;20443;-80
2023/03/29 12:22:38;;;;;;;12.20;6.17;;;11.40;1.00;;;;;;5037499;28;20499;-81
2023/03/29 12:25:07;;;;;;;8.60;6.23;;;11.10;99.90;;;;;;5039539;28;21010;-81
2023/03/29 12:27:42;;;;;;;14.73;8.20;;;10.90;99.90;;;;;;5040219;28;20448;-81
2023/03/29 12:30:41;;;;;;;20.07;6.90;;;10.90;99.90;;;;;;5039022;28;20494;-81
2023/03/29 12:33:44;;;;;;;24.90;15.63;;;10.90;99.90;;;;;;5016188;28;21009;-81
2023/03/29 12:36:41;;;;;;;6.10;5.50;;;10.80;99.90;;;;;;5040347;28;20520;-81
2023/03/29 12:39:13;;;;;;;9.83;5.67;;;11.10;99.90;;;;;;5043790;28;20448;-80
2023/03/29 12:41:43;;;;;;;6.63;4.60;;;11.30;99.90;;;;;;5053881;28;20879;-81
2023/03/29 12:44:15;;;;;;;8.60;5.93;;;10.90;99.90;;;;;;5044585;28;20530;-81
2023/03/29 12:46:42;;;;;;;7.30;5.40;;;11.00;99.90;;;;;;5042572;28;20495;-82
2023/03/29 12:49:13;;;;;;;6.20;5.47;;;11.00;99.90;;;;;;5040999;28;20542;-79
2023/03/29 12:51:42;;;;;;;21.30;5.80;;;10.90;99.90;;;;;;5045998;28;20479;-79
2023/03/29 12:54:15;;;;;;;26.73;7.80;;;10.80;99.90;;;;;;5044133;28;20465;-79
2023/03/29 12:56:55;;;;;;;15.93;5.03;;;10.90;99.90;;;;;;5042463;28;20519;-80
2023/03/29 12:59:34;;;;;;;10.30;5.27;;;10.70;99.90;;;;;;5037951;28;20436;-79
2023/03/29 13:02:23;;;;;;;28.33;5.87;;;10.80;99.90;;;;;;5040417;28;20924;-81
2023/03/29 13:04:53;;;;;;;6.33;4.50;;;10.90;99.90;;;;;;5039374;28;20496;-82
2023/03/29 13:07:30;;;;;;;9.63;4.30;;;11.00;99.90;;;;;;5038477;28;20889;-81
2023/03/29 13:09:58;;;;;;;12.53;5.87;;;11.00;99.90;;;;;;5050887;28;20429;-81
2023/03/29 13:12:27;;;;;;;10.10;4.40;;;11.10;99.90;;;;;;5051678;28;20479;-79
2023/03/29 13:14:59;;;;;;;10.63;4.40;;;11.00;99.90;;;;;;5048150;28;20511;-79
2023/03/29 13:17:38;;;;;;;5.47;4.90;;;11.50;1.00;;;;;;5052684;28;20428;-80